createdAt,value
2018-10-21T00:02:24.627Z,10.89
2018-10-21T00:04:54.997Z,10.70
2018-10-21T00:07:25.708Z,10.78
2018-10-21T00:09:57.146Z,10.76
2018-10-21T00:12:28.507Z,10.82
2018-10-21T00:14:58.771Z,11.06
2018-10-21T00:17:30.723Z,11.22
2018-10-21T00:20:00.743Z,11.23
2018-10-21T00:22:31.510Z,11.26
2018-10-21T00:25:03.017Z,11.28
2018-10-21T00:27:34.523Z,11.35
2018-10-21T00:30:04.557Z,11.06
2018-10-21T00:32:39.935Z,11.02
2018-10-21T00:35:10.933Z,10.98
2018-10-21T00:37:42.493Z,10.96
2018-10-21T00:40:12.394Z,10.81
2018-10-21T00:42:43.966Z,10.88
2018-10-21T00:45:13.988Z,10.85
2018-10-21T00:47:45.726Z,10.67
2018-10-21T00:50:18.110Z,10.61
2018-10-21T00:52:48.244Z,10.58
2018-10-21T00:55:18.144Z,10.67
2018-10-21T00:57:48.079Z,10.84
2018-10-21T01:00:17.956Z,10.65
2018-10-21T01:02:49.744Z,10.59
2018-10-21T01:05:20.997Z,10.59
2018-10-21T01:07:51.390Z,10.67
2018-10-21T01:10:21.257Z,10.67
2018-10-21T01:12:52.034Z,10.61
2018-10-21T01:15:23.171Z,10.59
2018-10-21T01:17:53.084Z,10.79
2018-10-21T01:20:24.934Z,10.84
2018-10-21T01:22:55.315Z,10.88
2018-10-21T01:25:26.497Z,10.82
2018-10-21T01:27:58.050Z,10.81
2018-10-21T01:30:29.781Z,10.92
2018-10-21T01:33:01.334Z,10.83
2018-10-21T01:35:32.717Z,10.71
2018-10-21T01:38:03.594Z,10.97
2018-10-21T01:40:40.709Z,11.05
2018-10-21T01:43:13.661Z,11.06
2018-10-21T01:45:44.386Z,11.13
2018-10-21T01:48:15.577Z,11.14
2018-10-21T01:50:47.419Z,11.05
2018-10-21T01:53:18.792Z,10.99
2018-10-21T01:55:49.482Z,10.82
2018-10-21T01:58:19.583Z,10.81
2018-10-21T02:00:49.927Z,10.82
2018-10-21T02:03:20.383Z,10.82
2018-10-21T02:05:52.329Z,10.87
2018-10-21T02:08:22.333Z,10.94
2018-10-21T02:10:52.881Z,10.81
2018-10-21T02:13:22.981Z,10.71
2018-10-21T02:15:52.991Z,10.83
2018-10-21T02:18:22.998Z,10.78
2018-10-21T02:20:54.486Z,10.71
2018-10-21T02:23:24.945Z,10.74
2018-10-21T02:25:55.215Z,10.80
2018-10-21T02:28:26.149Z,10.87
2018-10-21T02:30:57.417Z,11.00
2018-10-21T02:33:27.612Z,10.97
2018-10-21T02:35:58.475Z,10.92
2018-10-21T02:38:29.034Z,10.91
2018-10-21T02:41:45.852Z,11.03
2018-10-21T02:44:19.562Z,11.07
2018-10-21T02:46:52.622Z,11.07
2018-10-21T02:49:22.849Z,11.08
2018-10-21T02:51:58.286Z,11.13
2018-10-21T02:54:29.257Z,11.05
2018-10-21T02:56:59.590Z,11.02
2018-10-21T02:59:29.570Z,11.08
2018-10-21T03:02:00.559Z,11.02
2018-10-21T03:04:30.736Z,10.96
2018-10-21T03:07:01.261Z,10.94
2018-10-21T03:09:32.335Z,10.93
2018-10-21T03:12:03.163Z,10.87
2018-10-21T03:14:33.674Z,10.98
2018-10-21T03:17:03.898Z,11.05
2018-10-21T03:19:34.214Z,11.06
2018-10-21T03:22:05.236Z,11.09
2018-10-21T03:24:37.427Z,11.10
2018-10-21T03:27:08.755Z,11.04
2018-10-21T03:29:39.100Z,10.87
2018-10-21T03:32:09.699Z,10.79
2018-10-21T03:34:42.697Z,10.84
2018-10-21T03:37:23.596Z,10.96
2018-10-21T03:39:54.972Z,10.91
2018-10-21T03:42:26.040Z,10.97
2018-10-21T03:44:56.868Z,10.95
2018-10-21T03:47:27.917Z,10.84
2018-10-21T03:49:58.315Z,10.94
2018-10-21T03:52:28.225Z,11.14
2018-10-21T03:54:59.595Z,11.25
2018-10-21T03:57:29.509Z,11.48
2018-10-21T03:59:59.688Z,11.54
2018-10-21T04:02:29.752Z,11.69
2018-10-21T04:05:00.110Z,11.74
2018-10-21T04:07:30.741Z,11.80
2018-10-21T04:10:01.919Z,11.80
2018-10-21T04:12:32.142Z,11.74
2018-10-21T04:15:02.900Z,11.53
2018-10-21T04:17:32.798Z,11.61
2018-10-21T04:20:03.305Z,11.63
2018-10-21T04:22:37.599Z,11.65
2018-10-21T04:25:09.764Z,11.72
2018-10-21T04:27:41.354Z,11.79
2018-10-21T04:30:17.010Z,11.55
2018-10-21T04:32:49.539Z,11.17
2018-10-21T04:35:19.930Z,11.30
2018-10-21T04:38:36.868Z,11.30
2018-10-21T04:41:07.969Z,11.32
2018-10-21T04:43:38.028Z,11.47
2018-10-21T04:46:08.190Z,11.59
2018-10-21T04:48:38.407Z,11.66
2018-10-21T04:51:10.893Z,11.38
2018-10-21T04:53:41.350Z,11.22
2018-10-21T04:56:11.908Z,11.30
2018-10-21T04:58:42.766Z,11.00
2018-10-21T05:01:14.097Z,10.84
2018-10-21T05:03:45.546Z,10.88
2018-10-21T05:06:16.446Z,11.03
2018-10-21T05:08:47.289Z,11.06
2018-10-21T05:11:19.496Z,11.12
2018-10-21T05:13:49.388Z,11.05
2018-10-21T05:16:19.913Z,11.04
2018-10-21T05:18:50.846Z,10.92
2018-10-21T05:21:21.612Z,10.95
2018-10-21T05:23:53.120Z,10.89
2018-10-21T05:26:23.962Z,10.59
2018-10-21T05:28:54.492Z,10.66
2018-10-21T05:31:25.228Z,10.59
2018-10-21T05:33:56.201Z,10.63
2018-10-21T05:36:26.114Z,10.52
2018-10-21T05:38:55.896Z,10.59
2018-10-21T05:41:26.593Z,10.42
2018-10-21T05:43:56.845Z,10.56
2018-10-21T05:46:45.636Z,10.59
2018-10-21T05:49:16.031Z,10.48
2018-10-21T05:51:48.578Z,10.55
2018-10-21T05:54:21.087Z,10.51
2018-10-21T05:56:51.981Z,10.61
2018-10-21T05:59:22.872Z,10.82
2018-10-21T06:01:53.989Z,10.95
2018-10-21T06:04:26.100Z,11.00
2018-10-21T06:06:56.019Z,11.11
2018-10-21T06:09:25.979Z,11.17
2018-10-21T06:11:56.893Z,11.01
2018-10-21T06:14:26.792Z,11.08
2018-10-21T06:17:17.640Z,10.92
2018-10-21T06:19:52.893Z,10.99
2018-10-21T06:22:23.115Z,10.96
2018-10-21T06:24:54.611Z,11.04
2018-10-21T06:27:25.766Z,11.00
2018-10-21T06:29:55.858Z,10.93
2018-10-21T06:32:27.264Z,10.89
2018-10-21T06:34:59.186Z,11.00
2018-10-21T06:37:30.945Z,11.04
2018-10-21T06:40:00.887Z,11.12
2018-10-21T06:42:32.173Z,11.17
2018-10-21T06:47:54.946Z,11.16
2018-10-21T06:50:25.478Z,11.29
2018-10-21T06:52:55.516Z,11.31
2018-10-21T06:55:25.670Z,11.03
2018-10-21T06:57:55.784Z,11.00
2018-10-21T07:00:26.565Z,11.05
2018-10-21T07:02:58.018Z,11.15
2018-10-21T07:06:16.813Z,11.06
2018-10-21T07:08:47.731Z,11.14
2018-10-21T07:11:23.159Z,11.18
2018-10-21T07:13:55.894Z,11.33
2018-10-21T07:16:32.171Z,11.38
2018-10-21T07:19:04.391Z,11.46
2018-10-21T07:21:39.375Z,11.57
2018-10-21T07:24:09.913Z,11.64
2018-10-21T07:26:43.628Z,11.65
2018-10-21T07:29:16.985Z,11.83
2018-10-21T07:31:52.516Z,11.79
2018-10-21T07:34:26.687Z,11.79
2018-10-21T07:36:56.780Z,11.93
2018-10-21T07:39:27.343Z,11.88
2018-10-21T07:41:58.744Z,11.95
2018-10-21T07:44:29.071Z,11.98
2018-10-21T07:47:03.000Z,11.90
2018-10-21T07:49:35.480Z,11.90
2018-10-21T07:52:14.782Z,11.93
2018-10-21T07:54:47.765Z,11.96
2018-10-21T07:57:21.126Z,12.04
2018-10-21T07:59:51.921Z,12.04
2018-10-21T08:02:22.119Z,12.04
2018-10-21T08:04:52.751Z,12.06
2018-10-21T08:07:39.785Z,11.97
2018-10-21T08:10:10.557Z,12.07
2018-10-21T08:12:43.173Z,12.06
2018-10-21T08:15:13.311Z,12.01
2018-10-21T08:17:44.141Z,12.03
2018-10-21T08:20:25.466Z,12.01
2018-10-21T08:22:56.991Z,12.14
2018-10-21T08:25:29.186Z,12.10
2018-10-21T08:28:01.145Z,12.24
2018-10-21T08:30:33.432Z,12.24
2018-10-21T08:33:04.530Z,12.18
2018-10-21T08:35:40.523Z,12.33
2018-10-21T08:38:13.658Z,12.41
2018-10-21T08:40:45.413Z,12.35
2018-10-21T08:43:41.257Z,12.38
2018-10-21T08:46:14.051Z,12.38
2018-10-21T08:52:07.960Z,12.52
2018-10-21T08:54:59.905Z,12.57
2018-10-21T08:57:57.065Z,12.59
2018-10-21T09:00:43.565Z,12.80
2018-10-21T09:03:19.800Z,13.00
2018-10-21T09:05:54.896Z,12.79
2018-10-21T09:08:41.125Z,12.91
2018-10-21T09:11:12.592Z,13.03
2018-10-21T09:13:44.204Z,13.09
2018-10-21T09:19:30.063Z,13.20
2018-10-21T09:22:01.907Z,13.32
2018-10-21T09:24:34.772Z,13.07
2018-10-21T09:27:06.418Z,13.19
2018-10-21T09:29:44.575Z,13.15
2018-10-21T09:32:18.667Z,13.21
2018-10-21T09:34:51.746Z,13.40
2018-10-21T09:37:22.755Z,13.41
2018-10-21T09:39:53.170Z,13.42
2018-10-21T09:42:23.871Z,13.51
2018-10-21T09:44:54.178Z,13.48
2018-10-21T09:50:02.079Z,13.68
2018-10-21T09:52:33.390Z,13.68
2018-10-21T09:55:05.228Z,13.56
2018-10-21T09:57:42.225Z,13.57
2018-10-21T10:00:18.232Z,13.58
2018-10-21T10:05:44.167Z,13.73
2018-10-21T10:08:15.245Z,13.78
2018-10-21T10:10:46.470Z,13.85
2018-10-21T10:13:17.342Z,13.79
2018-10-21T10:15:47.927Z,13.78
2018-10-21T10:18:19.047Z,13.75
2018-10-21T10:20:49.990Z,13.77
2018-10-21T10:23:21.119Z,13.88
2018-10-21T10:25:51.840Z,13.80
2018-10-21T10:28:22.246Z,13.81
2018-10-21T10:30:52.947Z,13.89
2018-10-21T10:33:23.432Z,14.02
2018-10-21T10:35:54.339Z,14.02
2018-10-21T10:41:07.843Z,13.91
2018-10-21T10:43:38.545Z,13.84
2018-10-21T10:46:11.570Z,14.01
2018-10-21T10:48:42.043Z,14.18
2018-10-21T10:51:12.424Z,14.26
2018-10-21T10:53:43.689Z,14.22
2018-10-21T10:58:59.756Z,14.30
2018-10-21T11:01:30.735Z,14.44
2018-10-21T11:04:01.084Z,14.35
2018-10-21T11:06:33.624Z,14.43
2018-10-21T11:09:08.344Z,14.48
2018-10-21T11:11:39.263Z,14.38
2018-10-21T11:14:09.750Z,14.40
2018-10-21T11:16:40.748Z,14.48
2018-10-21T11:21:26.980Z,14.74
2018-10-21T11:23:57.701Z,14.79
2018-10-21T11:26:28.227Z,14.72
2018-10-21T11:28:59.554Z,14.78
2018-10-21T11:31:30.156Z,14.79
2018-10-21T11:34:00.591Z,14.93
2018-10-21T11:36:30.814Z,15.08
2018-10-21T11:39:00.830Z,15.15
2018-10-21T11:41:32.843Z,15.14
2018-10-21T11:44:03.104Z,15.19
2018-10-21T11:46:34.192Z,15.11
2018-10-21T11:49:04.938Z,15.16
2018-10-21T11:51:35.595Z,15.15
2018-10-21T11:54:06.043Z,15.25
2018-10-21T11:56:38.725Z,15.25
2018-10-21T11:59:09.762Z,15.33
2018-10-21T12:01:41.526Z,15.38
2018-10-21T12:04:12.246Z,15.31
2018-10-21T12:06:43.516Z,15.31
2018-10-21T12:09:14.471Z,15.36
2018-10-21T12:11:44.501Z,15.38
2018-10-21T12:14:15.799Z,15.50
2018-10-21T12:16:46.937Z,15.63
2018-10-21T12:22:05.728Z,15.58
2018-10-21T12:24:48.037Z,15.51
2018-10-21T12:27:18.430Z,15.64
2018-10-21T12:29:48.828Z,15.60
2018-10-21T12:32:20.050Z,15.45
2018-10-21T12:34:50.267Z,15.57
2018-10-21T12:40:09.078Z,15.53
2018-10-21T12:42:40.693Z,15.61
2018-10-21T12:45:12.497Z,15.59
2018-10-21T12:47:42.669Z,15.60
2018-10-21T12:50:12.672Z,15.51
2018-10-21T12:52:44.176Z,15.49
2018-10-21T12:55:14.928Z,15.56
2018-10-21T12:57:48.274Z,15.60
2018-10-21T13:00:19.568Z,15.67
2018-10-21T13:02:49.951Z,15.74
2018-10-21T13:05:20.282Z,15.64
2018-10-21T13:07:50.144Z,15.67
2018-10-21T13:10:21.735Z,15.68
2018-10-21T13:12:51.562Z,15.65
2018-10-21T13:15:22.251Z,15.60
2018-10-21T13:17:52.450Z,15.62
2018-10-21T13:20:22.858Z,15.62
2018-10-21T13:22:54.918Z,15.62
2018-10-21T13:25:25.613Z,15.62
2018-10-21T13:27:56.098Z,15.61
2018-10-21T13:30:26.546Z,15.52
2018-10-21T13:32:56.529Z,15.58
2018-10-21T13:35:26.708Z,15.69
2018-10-21T13:37:57.779Z,15.71
2018-10-21T13:40:32.645Z,15.75
2018-10-21T13:43:02.922Z,15.72
2018-10-21T13:45:33.525Z,15.68
2018-10-21T13:48:04.902Z,15.55
2018-10-21T13:50:47.065Z,15.45
2018-10-21T13:53:18.485Z,15.51
2018-10-21T13:58:40.400Z,15.51
2018-10-21T14:01:23.315Z,15.47
2018-10-21T14:03:54.627Z,15.43
2018-10-21T14:06:35.355Z,15.47
2018-10-21T14:09:12.494Z,15.45
2018-10-21T14:11:43.976Z,15.31
2018-10-21T14:14:20.390Z,15.35
2018-10-21T14:19:45.436Z,15.34
2018-10-21T14:22:17.780Z,15.31
2018-10-21T14:24:50.663Z,15.25
2018-10-21T14:27:20.814Z,15.33
2018-10-21T14:29:53.001Z,15.39
2018-10-21T14:32:24.707Z,15.34
2018-10-21T14:34:59.287Z,15.33
2018-10-21T14:37:35.185Z,15.40
2018-10-21T14:40:15.507Z,15.38
2018-10-21T14:42:51.858Z,15.37
2018-10-21T14:45:26.368Z,15.37
2018-10-21T14:47:58.813Z,15.38
2018-10-21T14:50:33.484Z,15.41
2018-10-21T14:53:05.391Z,15.48
2018-10-21T14:55:36.861Z,15.44
2018-10-21T14:58:08.766Z,15.41
2018-10-21T15:00:38.721Z,15.41
2018-10-21T15:03:08.828Z,15.39
2018-10-21T15:05:39.668Z,15.37
2018-10-21T15:08:13.036Z,15.39
2018-10-21T15:10:47.287Z,15.49
2018-10-21T15:13:17.497Z,15.47
2018-10-21T15:15:50.222Z,15.43
2018-10-21T15:18:21.599Z,15.36
2018-10-21T15:20:52.627Z,15.40
2018-10-21T15:23:24.659Z,15.44
2018-10-21T15:25:54.883Z,15.40
2018-10-21T15:28:27.461Z,15.36
2018-10-21T15:30:57.634Z,15.34
2018-10-21T15:33:29.975Z,15.30
2018-10-21T15:36:00.087Z,15.31
2018-10-21T15:38:31.103Z,15.30
2018-10-21T15:41:10.144Z,15.31
2018-10-21T15:43:43.640Z,15.30
2018-10-21T15:46:13.862Z,15.32
2018-10-21T15:48:45.445Z,15.30
2018-10-21T15:51:21.370Z,15.28
2018-10-21T15:53:55.869Z,15.27
2018-10-21T15:56:26.294Z,15.23
2018-10-21T15:58:58.876Z,15.20
2018-10-21T16:01:33.511Z,15.15
2018-10-21T16:04:03.983Z,15.12
2018-10-21T16:06:35.206Z,15.13
2018-10-21T16:09:08.974Z,15.13
2018-10-21T16:11:39.536Z,15.13
2018-10-21T16:17:08.935Z,15.08
2018-10-21T16:19:44.482Z,15.03
2018-10-21T16:22:17.036Z,15.02
2018-10-21T16:24:55.469Z,14.98
2018-10-21T16:27:26.232Z,14.97
2018-10-21T16:29:58.756Z,14.98
2018-10-21T16:32:29.822Z,14.99
2018-10-21T16:34:59.965Z,14.97
2018-10-21T16:37:31.711Z,14.97
2018-10-21T16:40:04.413Z,14.90
2018-10-21T16:42:35.150Z,14.93
2018-10-21T16:45:05.812Z,14.90
2018-10-21T16:47:38.635Z,14.91
2018-10-21T16:50:14.720Z,14.81
2018-10-21T16:52:46.458Z,14.82
2018-10-21T16:55:18.342Z,14.84
2018-10-21T16:57:52.458Z,14.87
2018-10-21T17:00:22.697Z,14.84
2018-10-21T17:02:52.563Z,14.78
2018-10-21T17:05:22.858Z,14.79
2018-10-21T17:07:52.789Z,14.83
2018-10-21T17:10:24.033Z,14.82
2018-10-21T17:12:54.121Z,14.80
2018-10-21T17:15:24.061Z,14.78
2018-10-21T17:17:54.080Z,14.73
2018-10-21T17:20:24.485Z,14.70
2018-10-21T17:22:55.599Z,14.65
2018-10-21T17:25:26.745Z,14.57
2018-10-21T17:27:57.672Z,14.59
2018-10-21T17:30:30.112Z,14.51
2018-10-21T17:33:02.308Z,14.50
2018-10-21T17:35:33.190Z,14.48
2018-10-21T17:38:09.009Z,14.46
2018-10-21T17:40:43.301Z,14.47
2018-10-21T17:43:14.715Z,14.36
2018-10-21T17:45:47.183Z,14.37
2018-10-21T17:48:20.413Z,14.36
2018-10-21T17:50:51.117Z,14.34
2018-10-21T17:53:22.169Z,14.31
2018-10-21T17:55:54.260Z,14.22
2018-10-21T17:58:24.678Z,14.22
2018-10-21T18:00:55.321Z,14.22
2018-10-21T18:03:27.533Z,14.12
2018-10-21T18:05:58.991Z,14.11
2018-10-21T18:08:29.762Z,14.10
2018-10-21T18:11:01.322Z,14.12
2018-10-21T18:13:31.939Z,14.05
2018-10-21T18:16:02.194Z,14.08
2018-10-21T18:18:32.718Z,13.98
2018-10-21T18:21:03.057Z,14.01
2018-10-21T18:23:39.312Z,13.95
2018-10-21T18:26:11.709Z,13.97
2018-10-21T18:28:44.244Z,13.91
2018-10-21T18:31:15.181Z,13.87
2018-10-21T18:33:48.298Z,13.81
2018-10-21T18:36:19.999Z,13.83
2018-10-21T18:38:51.825Z,13.78
2018-10-21T18:41:23.179Z,13.73
2018-10-21T18:43:55.094Z,13.66
2018-10-21T18:46:33.960Z,13.68
2018-10-21T18:49:07.972Z,13.74
2018-10-21T18:51:38.857Z,13.68
2018-10-21T18:54:10.025Z,13.57
2018-10-21T18:56:41.694Z,13.56
2018-10-21T18:59:13.504Z,13.58
2018-10-21T19:01:44.928Z,13.54
2018-10-21T19:04:15.378Z,13.52
2018-10-21T19:06:46.224Z,13.52
2018-10-21T19:09:16.753Z,13.39
2018-10-21T19:11:47.538Z,13.47
2018-10-21T19:14:19.915Z,13.42
2018-10-21T19:16:52.085Z,13.48
2018-10-21T19:19:22.850Z,13.45
2018-10-21T19:21:53.137Z,13.37
2018-10-21T19:24:24.042Z,13.37
2018-10-21T19:26:55.315Z,13.36
2018-10-21T19:29:26.913Z,13.42
2018-10-21T19:31:59.529Z,13.42
2018-10-21T19:34:34.302Z,13.42
2018-10-21T19:39:55.037Z,13.52
2018-10-21T19:42:25.725Z,13.49
2018-10-21T19:44:56.642Z,13.46
2018-10-21T19:47:34.887Z,13.47
2018-10-21T19:50:07.770Z,13.52
2018-10-21T19:52:38.972Z,13.49
2018-10-21T19:55:10.812Z,13.48
2018-10-21T19:57:42.728Z,13.48
2018-10-21T20:03:04.258Z,13.53
2018-10-21T20:05:35.528Z,13.58
2018-10-21T20:08:10.519Z,13.61
2018-10-21T20:10:41.234Z,13.57
2018-10-21T20:13:13.934Z,13.58
2018-10-21T20:15:47.871Z,13.49
2018-10-21T20:18:21.774Z,13.58
2018-10-21T20:20:54.073Z,13.63
2018-10-21T20:23:25.011Z,13.65
2018-10-21T20:25:58.801Z,13.62
2018-10-21T20:28:31.287Z,13.64
2018-10-21T20:31:01.642Z,13.64
2018-10-21T20:33:31.757Z,13.60
2018-10-21T20:36:02.584Z,13.66
2018-10-21T20:38:35.388Z,13.72
2018-10-21T20:41:08.795Z,13.71
2018-10-21T20:43:40.951Z,13.73
2018-10-21T20:46:12.751Z,13.71
2018-10-21T20:48:45.316Z,13.65
2018-10-21T20:51:16.123Z,13.61
2018-10-21T20:53:48.407Z,13.66
2018-10-21T20:56:19.352Z,13.62
2018-10-21T20:58:50.069Z,13.68
2018-10-21T21:01:20.338Z,13.68
2018-10-21T21:03:51.114Z,13.66
2018-10-21T21:06:21.482Z,13.71
2018-10-21T21:08:51.706Z,13.68
2018-10-21T21:11:23.710Z,13.73
2018-10-21T21:13:59.951Z,13.66
2018-10-21T21:16:32.061Z,13.66
2018-10-21T21:19:02.456Z,13.65
2018-10-21T21:21:33.076Z,13.56
2018-10-21T21:24:04.639Z,13.54
2018-10-21T21:26:38.514Z,13.57
2018-10-21T21:29:09.444Z,13.59
2018-10-21T21:31:40.181Z,13.61
2018-10-21T21:34:11.709Z,13.68
2018-10-21T21:36:42.897Z,13.57
2018-10-21T21:39:15.721Z,13.53
2018-10-21T21:41:48.488Z,13.46
2018-10-21T21:44:19.142Z,13.51
2018-10-21T21:46:49.541Z,13.53
2018-10-21T21:49:19.458Z,13.49
2018-10-21T21:51:49.963Z,13.46
2018-10-21T21:54:21.892Z,13.47
2018-10-21T21:56:51.833Z,13.46
2018-10-21T21:59:22.962Z,13.46
2018-10-21T22:01:52.946Z,13.38
2018-10-21T22:04:22.971Z,13.41
2018-10-21T22:06:53.628Z,13.42
2018-10-21T22:09:24.050Z,13.36
2018-10-21T22:11:55.111Z,13.45
2018-10-21T22:14:25.737Z,13.45
2018-10-21T22:16:56.269Z,13.52
2018-10-21T22:19:27.657Z,13.54
2018-10-21T22:21:57.521Z,13.54
2018-10-21T22:24:28.746Z,13.54
2018-10-21T22:26:59.122Z,13.53
2018-10-21T22:29:29.090Z,13.59
2018-10-21T22:31:59.002Z,13.61
2018-10-21T22:34:28.979Z,13.55
2018-10-21T22:36:58.902Z,13.59
2018-10-21T22:39:28.959Z,13.64
2018-10-21T22:41:58.954Z,13.50
2018-10-21T22:44:30.091Z,13.52
2018-10-21T22:49:31.528Z,13.56
2018-10-21T22:52:01.857Z,13.46
2018-10-21T22:54:31.949Z,13.51
2018-10-21T22:57:02.503Z,13.54
2018-10-21T22:59:33.139Z,13.49
2018-10-21T23:02:03.466Z,13.54
2018-10-21T23:04:33.623Z,13.54
2018-10-21T23:07:05.113Z,13.53
2018-10-21T23:09:35.035Z,13.56
2018-10-21T23:12:08.441Z,13.52
2018-10-21T23:14:39.358Z,13.53
2018-10-21T23:17:09.464Z,13.58
2018-10-21T23:19:45.257Z,13.59
2018-10-21T23:22:15.368Z,13.49
2018-10-21T23:24:46.165Z,13.44
2018-10-21T23:27:18.364Z,13.46
2018-10-21T23:29:48.667Z,13.44
2018-10-21T23:32:18.959Z,13.45
2018-10-21T23:34:48.802Z,13.44
2018-10-21T23:37:18.889Z,13.42
2018-10-21T23:39:49.662Z,13.39
2018-10-21T23:42:21.331Z,13.40
2018-10-21T23:44:54.728Z,13.42
2018-10-21T23:47:26.708Z,13.36
2018-10-21T23:49:57.012Z,13.31
2018-10-21T23:52:27.957Z,13.25
2018-10-21T23:55:00.897Z,13.27
2018-10-21T23:57:36.751Z,13.28
